sensor_id;sensor_type;location;lat;lon;timestamp;pressure;altitude;pressure_sealevel;temperature;humidity
43125;BME280;49182;50.788;7.318;2022-12-19T00:01:11;101616.16;;;-0.48;83.05
43125;BME280;49182;50.788;7.318;2022-12-19T00:03:38;101616.97;;;-0.46;84.28
43125;BME280;49182;50.788;7.318;2022-12-19T00:06:05;101610.03;;;-0.44;84.49
43125;BME280;49182;50.788;7.318;2022-12-19T00:08:32;101603.75;;;-0.36;83.64
43125;BME280;49182;50.788;7.318;2022-12-19T00:11:01;101596.06;;;-0.39;83.69
43125;BME280;49182;50.788;7.318;2022-12-19T00:13:29;101590.25;;;-0.49;85.33
43125;BME280;49182;50.788;7.318;2022-12-19T00:16:08;101547.66;;;-0.73;85.24
43125;BME280;49182;50.788;7.318;2022-12-19T00:18:36;101570.50;;;-0.55;85.57
43125;BME280;49182;50.788;7.318;2022-12-19T00:21:04;101580.78;;;-0.50;85.36
43125;BME280;49182;50.788;7.318;2022-12-19T00:23:32;101566.53;;;-0.35;85.54
43125;BME280;49182;50.788;7.318;2022-12-19T00:26:08;101563.16;;;-0.37;85.83
43125;BME280;49182;50.788;7.318;2022-12-19T00:28:35;101573.53;;;-0.37;86.86
43125;BME280;49182;50.788;7.318;2022-12-19T00:31:03;101588.31;;;-0.41;87.07
43125;BME280;49182;50.788;7.318;2022-12-19T00:33:30;101573.59;;;-0.41;88.02
43125;BME280;49182;50.788;7.318;2022-12-19T00:35:58;101583.41;;;-0.19;86.80
43125;BME280;49182;50.788;7.318;2022-12-19T00:38:26;101588.50;;;-0.16;86.73
43125;BME280;49182;50.788;7.318;2022-12-19T00:40:53;101583.06;;;-0.07;85.87
43125;BME280;49182;50.788;7.318;2022-12-19T00:43:21;101576.03;;;-0.04;85.10
43125;BME280;49182;50.788;7.318;2022-12-19T00:45:48;101575.22;;;-0.06;85.47
43125;BME280;49182;50.788;7.318;2022-12-19T00:48:16;101558.91;;;-0.09;86.65
43125;BME280;49182;50.788;7.318;2022-12-19T00:50:44;101552.63;;;-0.02;85.94
43125;BME280;49182;50.788;7.318;2022-12-19T00:53:12;101553.34;;;0.03;86.37
43125;BME280;49182;50.788;7.318;2022-12-19T00:55:39;101515.00;;;-0.17;86.23
43125;BME280;49182;50.788;7.318;2022-12-19T00:58:05;101535.19;;;0.03;86.36
43125;BME280;49182;50.788;7.318;2022-12-19T01:00:33;101544.28;;;0.18;84.98
43125;BME280;49182;50.788;7.318;2022-12-19T01:03:00;101548.09;;;0.06;85.90
43125;BME280;49182;50.788;7.318;2022-12-19T01:05:29;101528.94;;;0.09;86.09
43125;BME280;49182;50.788;7.318;2022-12-19T01:07:56;101525.25;;;0.17;85.48
43125;BME280;49182;50.788;7.318;2022-12-19T01:10:22;101527.56;;;-0.03;87.70
43125;BME280;49182;50.788;7.318;2022-12-19T01:12:49;101526.69;;;-0.02;87.57
43125;BME280;49182;50.788;7.318;2022-12-19T01:15:18;101518.72;;;0.04;87.70
43125;BME280;49182;50.788;7.318;2022-12-19T01:17:47;101493.19;;;-0.11;88.27
43125;BME280;49182;50.788;7.318;2022-12-19T01:20:15;101513.41;;;0.07;88.50
43125;BME280;49182;50.788;7.318;2022-12-19T01:22:56;101468.63;;;-0.29;88.66
43125;BME280;49182;50.788;7.318;2022-12-19T01:25:25;101539.97;;;0.17;88.28
43125;BME280;49182;50.788;7.318;2022-12-19T01:27:53;101538.03;;;0.23;88.04
43125;BME280;49182;50.788;7.318;2022-12-19T01:30:19;101531.03;;;0.25;87.71
43125;BME280;49182;50.788;7.318;2022-12-19T01:32:48;101484.19;;;0.00;88.01
43125;BME280;49182;50.788;7.318;2022-12-19T01:35:15;101531.41;;;0.43;86.72
43125;BME280;49182;50.788;7.318;2022-12-19T01:37:47;101522.03;;;0.37;86.81
43125;BME280;49182;50.788;7.318;2022-12-19T01:40:15;101516.13;;;0.32;87.89
43125;BME280;49182;50.788;7.318;2022-12-19T01:42:42;101517.66;;;0.37;87.86
43125;BME280;49182;50.788;7.318;2022-12-19T01:45:33;101509.84;;;0.39;87.98
43125;BME280;49182;50.788;7.318;2022-12-19T01:48:16;101472.88;;;0.31;87.88
43125;BME280;49182;50.788;7.318;2022-12-19T01:50:50;101519.88;;;0.50;88.39
43125;BME280;49182;50.788;7.318;2022-12-19T01:53:31;101511.91;;;0.56;86.78
43125;BME280;49182;50.788;7.318;2022-12-19T01:55:59;101496.31;;;0.56;86.93
43125;BME280;49182;50.788;7.318;2022-12-19T01:58:35;101486.22;;;0.47;87.45
43125;BME280;49182;50.788;7.318;2022-12-19T02:01:03;101500.88;;;0.49;87.88
43125;BME280;49182;50.788;7.318;2022-12-19T02:03:33;101492.47;;;0.41;87.18
43125;BME280;49182;50.788;7.318;2022-12-19T02:06:01;101500.50;;;0.61;86.82
43125;BME280;49182;50.788;7.318;2022-12-19T02:08:28;101503.16;;;0.58;86.59
43125;BME280;49182;50.788;7.318;2022-12-19T02:10:58;101500.34;;;0.66;86.52
43125;BME280;49182;50.788;7.318;2022-12-19T02:13:25;101490.22;;;0.57;87.37
43125;BME280;49182;50.788;7.318;2022-12-19T02:15:57;101491.03;;;0.59;87.69
43125;BME280;49182;50.788;7.318;2022-12-19T02:18:36;101489.31;;;0.58;87.40
43125;BME280;49182;50.788;7.318;2022-12-19T02:21:28;101473.25;;;0.73;86.81
43125;BME280;49182;50.788;7.318;2022-12-19T02:24:31;101474.94;;;0.74;85.65
43125;BME280;49182;50.788;7.318;2022-12-19T02:30:08;101463.59;;;0.50;86.62
43125;BME280;49182;50.788;7.318;2022-12-19T02:32:48;101478.13;;;0.56;86.90
43125;BME280;49182;50.788;7.318;2022-12-19T02:35:26;101432.41;;;0.50;86.68
43125;BME280;49182;50.788;7.318;2022-12-19T02:38:03;101446.47;;;0.71;85.86
43125;BME280;49182;50.788;7.318;2022-12-19T02:40:41;101443.97;;;0.68;86.20
43125;BME280;49182;50.788;7.318;2022-12-19T02:43:14;101435.97;;;0.48;87.47
43125;BME280;49182;50.788;7.318;2022-12-19T02:45:44;101454.94;;;0.76;85.93
43125;BME280;49182;50.788;7.318;2022-12-19T02:48:15;101438.91;;;0.63;84.90
43125;BME280;49182;50.788;7.318;2022-12-19T02:50:46;101447.34;;;0.70;86.11
43125;BME280;49182;50.788;7.318;2022-12-19T02:53:16;101437.38;;;0.82;84.26
43125;BME280;49182;50.788;7.318;2022-12-19T02:56:06;101412.56;;;0.49;85.24
43125;BME280;49182;50.788;7.318;2022-12-19T02:58:51;101438.88;;;0.90;84.63
43125;BME280;49182;50.788;7.318;2022-12-19T03:01:33;101441.41;;;0.66;85.43
43125;BME280;49182;50.788;7.318;2022-12-19T03:04:13;101436.25;;;0.65;85.97
43125;BME280;49182;50.788;7.318;2022-12-19T03:06:46;101433.59;;;0.68;85.40
43125;BME280;49182;50.788;7.318;2022-12-19T03:09:19;101435.31;;;0.67;86.18
43125;BME280;49182;50.788;7.318;2022-12-19T03:11:54;101429.19;;;0.68;85.80
43125;BME280;49182;50.788;7.318;2022-12-19T03:14:23;101425.91;;;0.63;86.12
43125;BME280;49182;50.788;7.318;2022-12-19T03:16:53;101404.22;;;0.64;86.37
43125;BME280;49182;50.788;7.318;2022-12-19T03:19:22;101416.38;;;0.64;87.11
43125;BME280;49182;50.788;7.318;2022-12-19T03:21:49;101404.84;;;0.72;86.66
43125;BME280;49182;50.788;7.318;2022-12-19T03:24:17;101405.03;;;0.66;86.81
43125;BME280;49182;50.788;7.318;2022-12-19T03:26:49;101403.28;;;0.67;87.18
43125;BME280;49182;50.788;7.318;2022-12-19T03:29:22;101382.50;;;0.67;86.93
43125;BME280;49182;50.788;7.318;2022-12-19T03:31:51;101390.72;;;0.79;86.66
43125;BME280;49182;50.788;7.318;2022-12-19T03:34:25;101394.22;;;0.78;87.35
43125;BME280;49182;50.788;7.318;2022-12-19T03:36:57;101392.63;;;0.74;87.73
43125;BME280;49182;50.788;7.318;2022-12-19T03:39:25;101394.19;;;0.80;88.36
43125;BME280;49182;50.788;7.318;2022-12-19T03:41:54;101376.00;;;0.80;87.76
43125;BME280;49182;50.788;7.318;2022-12-19T03:44:24;101398.41;;;0.82;88.43
43125;BME280;49182;50.788;7.318;2022-12-19T03:46:56;101389.44;;;0.91;88.11
43125;BME280;49182;50.788;7.318;2022-12-19T03:49:26;101385.03;;;0.93;88.41
43125;BME280;49182;50.788;7.318;2022-12-19T03:51:57;101385.88;;;0.94;88.42
43125;BME280;49182;50.788;7.318;2022-12-19T03:54:28;101348.59;;;0.70;88.73
43125;BME280;49182;50.788;7.318;2022-12-19T03:57:01;101373.69;;;0.96;88.74
43125;BME280;49182;50.788;7.318;2022-12-19T03:59:34;101373.50;;;1.00;89.65
43125;BME280;49182;50.788;7.318;2022-12-19T04:02:04;101377.97;;;0.97;89.71
43125;BME280;49182;50.788;7.318;2022-12-19T04:04:34;101343.50;;;0.92;89.74
43125;BME280;49182;50.788;7.318;2022-12-19T04:07:02;101361.25;;;1.04;89.87
43125;BME280;49182;50.788;7.318;2022-12-19T04:09:31;101370.75;;;1.05;89.73
43125;BME280;49182;50.788;7.318;2022-12-19T04:12:01;101364.50;;;1.10;89.76
43125;BME280;49182;50.788;7.318;2022-12-19T04:14:31;101359.13;;;1.15;89.64
43125;BME280;49182;50.788;7.318;2022-12-19T04:17:05;101260.88;;;0.53;89.47
43125;BME280;49182;50.788;7.318;2022-12-19T04:19:41;101339.03;;;0.95;90.24
43125;BME280;49182;50.788;7.318;2022-12-19T04:22:12;101339.88;;;0.96;90.35
43125;BME280;49182;50.788;7.318;2022-12-19T04:24:42;101360.72;;;1.17;90.42
43125;BME280;49182;50.788;7.318;2022-12-19T04:27:12;101351.81;;;1.25;89.96
43125;BME280;49182;50.788;7.318;2022-12-19T04:29:40;101352.50;;;1.30;90.23
43125;BME280;49182;50.788;7.318;2022-12-19T04:32:08;101345.38;;;1.35;89.80
43125;BME280;49182;50.788;7.318;2022-12-19T04:34:36;101344.81;;;1.27;90.13
43125;BME280;49182;50.788;7.318;2022-12-19T04:37:09;101340.03;;;1.38;89.89
43125;BME280;49182;50.788;7.318;2022-12-19T04:39:36;101343.84;;;1.29;90.58
43125;BME280;49182;50.788;7.318;2022-12-19T04:42:03;101326.28;;;1.36;89.51
43125;BME280;49182;50.788;7.318;2022-12-19T04:44:30;101339.28;;;1.36;90.07
43125;BME280;49182;50.788;7.318;2022-12-19T04:46:57;101344.56;;;1.33;90.69
43125;BME280;49182;50.788;7.318;2022-12-19T04:49:23;101346.47;;;1.51;89.71
43125;BME280;49182;50.788;7.318;2022-12-19T04:51:51;101350.88;;;1.49;90.47
43125;BME280;49182;50.788;7.318;2022-12-19T04:54:18;101350.22;;;1.44;90.81
43125;BME280;49182;50.788;7.318;2022-12-19T04:56:45;101345.88;;;1.44;91.40
43125;BME280;49182;50.788;7.318;2022-12-19T04:59:11;101352.09;;;1.62;91.03
43125;BME280;49182;50.788;7.318;2022-12-19T05:01:38;101349.88;;;1.53;91.29
43125;BME280;49182;50.788;7.318;2022-12-19T05:04:05;101354.28;;;1.51;91.78
43125;BME280;49182;50.788;7.318;2022-12-19T05:06:32;101356.66;;;1.57;91.87
43125;BME280;49182;50.788;7.318;2022-12-19T05:09:00;101303.56;;;1.39;91.25
43125;BME280;49182;50.788;7.318;2022-12-19T05:11:26;101324.56;;;1.35;91.73
43125;BME280;49182;50.788;7.318;2022-12-19T05:13:53;101357.16;;;1.67;91.59
43125;BME280;49182;50.788;7.318;2022-12-19T05:16:20;101360.66;;;1.66;91.60
43125;BME280;49182;50.788;7.318;2022-12-19T05:18:46;101360.75;;;1.62;91.74
43125;BME280;49182;50.788;7.318;2022-12-19T05:21:13;101334.69;;;1.64;91.99
43125;BME280;49182;50.788;7.318;2022-12-19T05:23:40;101334.44;;;1.70;91.89
43125;BME280;49182;50.788;7.318;2022-12-19T05:26:10;101300.72;;;1.45;92.28
43125;BME280;49182;50.788;7.318;2022-12-19T05:28:37;101324.50;;;1.80;92.11
43125;BME280;49182;50.788;7.318;2022-12-19T05:31:06;101303.03;;;1.53;91.79
43125;BME280;49182;50.788;7.318;2022-12-19T05:33:34;101339.03;;;1.63;92.15
43125;BME280;49182;50.788;7.318;2022-12-19T05:36:01;101336.69;;;1.57;92.46
43125;BME280;49182;50.788;7.318;2022-12-19T05:38:28;101338.44;;;1.57;92.80
43125;BME280;49182;50.788;7.318;2022-12-19T05:40:54;101342.38;;;1.67;92.18
43125;BME280;49182;50.788;7.318;2022-12-19T05:43:22;101328.88;;;1.57;92.37
43125;BME280;49182;50.788;7.318;2022-12-19T05:45:49;101335.16;;;1.74;91.52
43125;BME280;49182;50.788;7.318;2022-12-19T05:48:16;101329.66;;;1.81;91.08
43125;BME280;49182;50.788;7.318;2022-12-19T05:50:46;101342.63;;;1.83;91.41
43125;BME280;49182;50.788;7.318;2022-12-19T05:53:13;101338.56;;;1.76;91.81
43125;BME280;49182;50.788;7.318;2022-12-19T05:55:39;101327.81;;;1.85;91.29
43125;BME280;49182;50.788;7.318;2022-12-19T05:58:06;101324.38;;;2.04;91.03
43125;BME280;49182;50.788;7.318;2022-12-19T06:00:34;101329.41;;;1.87;91.91
43125;BME280;49182;50.788;7.318;2022-12-19T06:03:00;101334.91;;;1.80;92.09
43125;BME280;49182;50.788;7.318;2022-12-19T06:05:27;101326.00;;;1.85;92.42
43125;BME280;49182;50.788;7.318;2022-12-19T06:07:54;101333.78;;;1.87;92.94
43125;BME280;49182;50.788;7.318;2022-12-19T06:10:21;101336.06;;;1.94;92.79
43125;BME280;49182;50.788;7.318;2022-12-19T06:12:47;101347.28;;;1.96;92.95
43125;BME280;49182;50.788;7.318;2022-12-19T06:15:14;101348.13;;;1.97;93.49
43125;BME280;49182;50.788;7.318;2022-12-19T06:17:42;101354.09;;;1.99;93.32
43125;BME280;49182;50.788;7.318;2022-12-19T06:20:09;101357.31;;;2.06;93.03
43125;BME280;49182;50.788;7.318;2022-12-19T06:22:36;101277.63;;;1.59;93.16
43125;BME280;49182;50.788;7.318;2022-12-19T06:25:03;101342.34;;;2.11;93.25
43125;BME280;49182;50.788;7.318;2022-12-19T06:27:30;101346.34;;;2.19;92.57
43125;BME280;49182;50.788;7.318;2022-12-19T06:29:56;101345.78;;;2.11;93.12
43125;BME280;49182;50.788;7.318;2022-12-19T06:32:24;101323.97;;;1.93;93.31
43125;BME280;49182;50.788;7.318;2022-12-19T06:34:52;101356.81;;;2.18;92.88
43125;BME280;49182;50.788;7.318;2022-12-19T06:37:30;101352.41;;;2.20;93.08
43125;BME280;49182;50.788;7.318;2022-12-19T06:39:56;101350.44;;;2.25;92.94
43125;BME280;49182;50.788;7.318;2022-12-19T06:42:23;101344.72;;;2.37;91.69
43125;BME280;49182;50.788;7.318;2022-12-19T06:44:51;101347.53;;;2.32;91.62
43125;BME280;49182;50.788;7.318;2022-12-19T06:47:18;101339.97;;;2.26;92.00
43125;BME280;49182;50.788;7.318;2022-12-19T06:49:45;101351.63;;;2.38;91.49
43125;BME280;49182;50.788;7.318;2022-12-19T06:52:13;101349.28;;;2.32;91.26
43125;BME280;49182;50.788;7.318;2022-12-19T06:54:40;101353.69;;;2.30;92.08
43125;BME280;49182;50.788;7.318;2022-12-19T06:57:06;101361.41;;;2.33;91.44
43125;BME280;49182;50.788;7.318;2022-12-19T06:59:33;101349.41;;;2.29;92.04
43125;BME280;49182;50.788;7.318;2022-12-19T07:02:05;101344.78;;;2.35;91.99
43125;BME280;49182;50.788;7.318;2022-12-19T07:04:36;101359.66;;;2.33;92.22
43125;BME280;49182;50.788;7.318;2022-12-19T07:07:04;101359.41;;;2.39;92.24
43125;BME280;49182;50.788;7.318;2022-12-19T07:09:33;101363.16;;;2.32;92.58
43125;BME280;49182;50.788;7.318;2022-12-19T07:12:00;101366.72;;;2.30;92.92
43125;BME280;49182;50.788;7.318;2022-12-19T07:14:27;101364.88;;;2.33;92.82
43125;BME280;49182;50.788;7.318;2022-12-19T07:16:54;101373.03;;;2.46;92.16
43125;BME280;49182;50.788;7.318;2022-12-19T07:19:24;101354.97;;;2.62;91.14
43125;BME280;49182;50.788;7.318;2022-12-19T07:21:51;101353.59;;;2.53;92.01
43125;BME280;49182;50.788;7.318;2022-12-19T07:24:18;101361.34;;;2.55;92.21
43125;BME280;49182;50.788;7.318;2022-12-19T07:26:46;101373.53;;;2.54;92.67
43125;BME280;49182;50.788;7.318;2022-12-19T07:29:12;101364.53;;;2.41;93.03
43125;BME280;49182;50.788;7.318;2022-12-19T07:31:39;101377.56;;;2.41;93.38
43125;BME280;49182;50.788;7.318;2022-12-19T07:34:06;101368.72;;;2.45;93.48
43125;BME280;49182;50.788;7.318;2022-12-19T07:36:33;101346.81;;;2.49;93.03
43125;BME280;49182;50.788;7.318;2022-12-19T07:39:00;101369.22;;;2.53;92.79
43125;BME280;49182;50.788;7.318;2022-12-19T07:41:26;101373.78;;;2.68;92.38
43125;BME280;49182;50.788;7.318;2022-12-19T07:43:54;101363.81;;;2.78;92.35
43125;BME280;49182;50.788;7.318;2022-12-19T07:46:21;101377.50;;;2.63;93.10
43125;BME280;49182;50.788;7.318;2022-12-19T07:48:47;101398.56;;;2.58;93.54
43125;BME280;49182;50.788;7.318;2022-12-19T07:51:14;101395.97;;;2.58;93.87
43125;BME280;49182;50.788;7.318;2022-12-19T07:53:40;101396.97;;;2.54;93.79
43125;BME280;49182;50.788;7.318;2022-12-19T07:56:07;101389.84;;;2.59;93.82
43125;BME280;49182;50.788;7.318;2022-12-19T07:58:34;101381.75;;;2.65;93.87
43125;BME280;49182;50.788;7.318;2022-12-19T08:01:02;101376.34;;;2.70;94.35
43125;BME280;49182;50.788;7.318;2022-12-19T08:03:30;101390.34;;;2.67;94.74
43125;BME280;49182;50.788;7.318;2022-12-19T08:05:58;101359.78;;;2.71;93.75
43125;BME280;49182;50.788;7.318;2022-12-19T08:08:26;101389.63;;;2.84;93.91
43125;BME280;49182;50.788;7.318;2022-12-19T08:10:52;101386.31;;;2.80;94.09
43125;BME280;49182;50.788;7.318;2022-12-19T08:13:19;101345.38;;;2.62;93.25
43125;BME280;49182;50.788;7.318;2022-12-19T08:15:45;101376.19;;;2.93;92.58
43125;BME280;49182;50.788;7.318;2022-12-19T08:18:14;101383.97;;;2.95;92.83
43125;BME280;49182;50.788;7.318;2022-12-19T08:20:43;101370.53;;;2.83;93.25
43125;BME280;49182;50.788;7.318;2022-12-19T08:23:09;101377.44;;;2.84;93.19
43125;BME280;49182;50.788;7.318;2022-12-19T08:25:36;101355.59;;;2.67;93.61
43125;BME280;49182;50.788;7.318;2022-12-19T08:28:03;101368.19;;;2.77;93.99
43125;BME280;49182;50.788;7.318;2022-12-19T08:30:29;101377.78;;;2.77;93.80
43125;BME280;49182;50.788;7.318;2022-12-19T08:32:56;101371.03;;;2.92;93.03
43125;BME280;49182;50.788;7.318;2022-12-19T08:35:24;101327.97;;;2.63;92.88
43125;BME280;49182;50.788;7.318;2022-12-19T08:37:51;101365.00;;;2.71;94.09
43125;BME280;49182;50.788;7.318;2022-12-19T08:40:17;101303.31;;;2.51;93.93
43125;BME280;49182;50.788;7.318;2022-12-19T08:42:44;101360.44;;;2.96;93.71
43125;BME280;49182;50.788;7.318;2022-12-19T08:45:11;101355.69;;;3.04;92.96
43125;BME280;49182;50.788;7.318;2022-12-19T08:47:37;101352.88;;;3.09;92.79
43125;BME280;49182;50.788;7.318;2022-12-19T08:50:04;101346.53;;;2.96;93.42
43125;BME280;49182;50.788;7.318;2022-12-19T08:52:32;101348.59;;;3.08;92.53
43125;BME280;49182;50.788;7.318;2022-12-19T08:54:59;101351.28;;;2.86;94.55
43125;BME280;49182;50.788;7.318;2022-12-19T08:57:26;101353.00;;;2.87;94.54
43125;BME280;49182;50.788;7.318;2022-12-19T08:59:53;101354.78;;;3.05;93.66
43125;BME280;49182;50.788;7.318;2022-12-19T09:02:20;101342.53;;;3.07;93.77
43125;BME280;49182;50.788;7.318;2022-12-19T09:04:47;101309.63;;;2.84;93.45
43125;BME280;49182;50.788;7.318;2022-12-19T09:07:35;101332.81;;;2.91;93.94
43125;BME280;49182;50.788;7.318;2022-12-19T09:10:05;101354.38;;;3.14;94.04
43125;BME280;49182;50.788;7.318;2022-12-19T09:12:31;101357.28;;;3.27;93.37
43125;BME280;49182;50.788;7.318;2022-12-19T09:14:58;101359.19;;;3.23;93.48
43125;BME280;49182;50.788;7.318;2022-12-19T09:17:24;101357.28;;;3.27;93.88
43125;BME280;49182;50.788;7.318;2022-12-19T09:19:51;101362.63;;;3.24;93.94
43125;BME280;49182;50.788;7.318;2022-12-19T09:22:17;101351.84;;;3.13;94.16
43125;BME280;49182;50.788;7.318;2022-12-19T09:24:47;101369.50;;;3.27;94.25
43125;BME280;49182;50.788;7.318;2022-12-19T09:27:13;101358.78;;;3.33;93.83
43125;BME280;49182;50.788;7.318;2022-12-19T09:29:40;101351.78;;;3.33;93.74
43125;BME280;49182;50.788;7.318;2022-12-19T09:32:07;101347.50;;;3.32;94.35
43125;BME280;49182;50.788;7.318;2022-12-19T09:34:33;101341.25;;;3.35;93.56
43125;BME280;49182;50.788;7.318;2022-12-19T09:37:05;101327.06;;;3.21;93.53
43125;BME280;49182;50.788;7.318;2022-12-19T09:39:32;101354.66;;;3.46;93.48
43125;BME280;49182;50.788;7.318;2022-12-19T09:42:20;101348.53;;;3.47;93.64
43125;BME280;49182;50.788;7.318;2022-12-19T09:45:10;101351.00;;;3.50;93.81
43125;BME280;49182;50.788;7.318;2022-12-19T09:47:56;101350.09;;;3.51;93.87
43125;BME280;49182;50.788;7.318;2022-12-19T09:50:34;101351.00;;;3.50;92.91
43125;BME280;49182;50.788;7.318;2022-12-19T09:53:05;101302.28;;;3.13;93.96
43125;BME280;49182;50.788;7.318;2022-12-19T09:55:35;101335.00;;;3.39;94.55
43125;BME280;49182;50.788;7.318;2022-12-19T09:58:11;101328.94;;;3.57;93.57
43125;BME280;49182;50.788;7.318;2022-12-19T10:00:42;101303.81;;;3.36;93.68
43125;BME280;49182;50.788;7.318;2022-12-19T10:03:16;101320.66;;;3.47;93.34
43125;BME280;49182;50.788;7.318;2022-12-19T10:05:49;101315.72;;;3.41;94.24
43125;BME280;49182;50.788;7.318;2022-12-19T10:08:37;101316.22;;;3.49;93.66
43125;BME280;49182;50.788;7.318;2022-12-19T10:11:37;101302.63;;;3.43;94.11
43125;BME280;49182;50.788;7.318;2022-12-19T10:14:40;101302.22;;;3.33;94.55
43125;BME280;49182;50.788;7.318;2022-12-19T10:17:15;101317.03;;;3.33;94.43
43125;BME280;49182;50.788;7.318;2022-12-19T10:20:02;101309.03;;;3.36;95.05
43125;BME280;49182;50.788;7.318;2022-12-19T10:22:42;101322.72;;;3.41;94.22
43125;BME280;49182;50.788;7.318;2022-12-19T10:25:26;101326.44;;;3.35;95.14
43125;BME280;49182;50.788;7.318;2022-12-19T10:27:57;101309.88;;;3.36;94.81
43125;BME280;49182;50.788;7.318;2022-12-19T10:30:32;101320.25;;;3.38;94.92
43125;BME280;49182;50.788;7.318;2022-12-19T10:33:08;101324.34;;;3.43;95.55
43125;BME280;49182;50.788;7.318;2022-12-19T10:35:51;101311.13;;;3.46;95.09
43125;BME280;49182;50.788;7.318;2022-12-19T10:38:23;101275.66;;;3.42;94.87
43125;BME280;49182;50.788;7.318;2022-12-19T10:41:06;101303.00;;;3.52;95.00
43125;BME280;49182;50.788;7.318;2022-12-19T10:43:41;101270.59;;;3.39;94.73
43125;BME280;49182;50.788;7.318;2022-12-19T10:46:16;101294.59;;;3.64;94.74
43125;BME280;49182;50.788;7.318;2022-12-19T10:48:45;101302.06;;;3.72;94.43
43125;BME280;49182;50.788;7.318;2022-12-19T10:51:20;101293.25;;;3.75;94.89
43125;BME280;49182;50.788;7.318;2022-12-19T10:53:52;101288.66;;;3.80;94.62
43125;BME280;49182;50.788;7.318;2022-12-19T10:56:22;101293.72;;;3.83;94.49
43125;BME280;49182;50.788;7.318;2022-12-19T10:58:52;101291.63;;;3.89;93.56
43125;BME280;49182;50.788;7.318;2022-12-19T11:01:24;101281.28;;;4.05;93.00
43125;BME280;49182;50.788;7.318;2022-12-19T11:06:42;101287.69;;;3.99;93.56
43125;BME280;49182;50.788;7.318;2022-12-19T11:09:27;101284.22;;;3.99;93.37
43125;BME280;49182;50.788;7.318;2022-12-19T11:12:00;101290.66;;;4.09;92.27
43125;BME280;49182;50.788;7.318;2022-12-19T11:14:50;101292.59;;;4.05;91.98
43125;BME280;49182;50.788;7.318;2022-12-19T11:17:39;101286.47;;;4.06;92.34
43125;BME280;49182;50.788;7.318;2022-12-19T11:20:25;101276.63;;;3.94;92.85
43125;BME280;49182;50.788;7.318;2022-12-19T11:23:13;101289.28;;;4.02;92.84
43125;BME280;49182;50.788;7.318;2022-12-19T11:26:02;101284.38;;;4.13;91.73
43125;BME280;49182;50.788;7.318;2022-12-19T11:28:49;101283.13;;;4.03;93.17
43125;BME280;49182;50.788;7.318;2022-12-19T11:31:36;101292.59;;;4.05;92.47
43125;BME280;49182;50.788;7.318;2022-12-19T11:34:26;101284.75;;;4.05;92.47
43125;BME280;49182;50.788;7.318;2022-12-19T11:36:58;101259.31;;;3.92;91.75
43125;BME280;49182;50.788;7.318;2022-12-19T11:39:32;101243.88;;;3.87;92.13
43125;BME280;49182;50.788;7.318;2022-12-19T11:42:08;101275.00;;;4.09;91.78
43125;BME280;49182;50.788;7.318;2022-12-19T11:44:43;101282.75;;;4.11;91.69
43125;BME280;49182;50.788;7.318;2022-12-19T11:47:19;101272.75;;;4.01;92.20
43125;BME280;49182;50.788;7.318;2022-12-19T11:49:53;101281.97;;;4.08;91.86
43125;BME280;49182;50.788;7.318;2022-12-19T11:52:32;101269.47;;;3.98;92.35
43125;BME280;49182;50.788;7.318;2022-12-19T11:55:24;101282.38;;;4.01;92.27
43125;BME280;49182;50.788;7.318;2022-12-19T11:57:52;101274.00;;;3.94;92.89
43125;BME280;49182;50.788;7.318;2022-12-19T12:00:21;101261.78;;;3.95;92.69
43125;BME280;49182;50.788;7.318;2022-12-19T12:05:54;101290.84;;;4.06;93.16
43125;BME280;49182;50.788;7.318;2022-12-19T12:08:35;101295.88;;;4.09;92.79
43125;BME280;49182;50.788;7.318;2022-12-19T12:11:35;101286.16;;;4.13;93.06
43125;BME280;49182;50.788;7.318;2022-12-19T12:14:28;101271.38;;;4.12;93.15
43125;BME280;49182;50.788;7.318;2022-12-19T12:17:29;101282.69;;;4.29;91.28
43125;BME280;49182;50.788;7.318;2022-12-19T12:20:29;101271.44;;;4.27;91.98
43125;BME280;49182;50.788;7.318;2022-12-19T12:23:27;101273.31;;;4.25;92.80
43125;BME280;49182;50.788;7.318;2022-12-19T12:26:18;101263.41;;;4.32;91.96
43125;BME280;49182;50.788;7.318;2022-12-19T12:29:15;101236.88;;;4.22;91.72
43125;BME280;49182;50.788;7.318;2022-12-19T12:32:19;101247.81;;;4.46;91.07
43125;BME280;49182;50.788;7.318;2022-12-19T12:35:17;101249.50;;;4.47;91.14
43125;BME280;49182;50.788;7.318;2022-12-19T12:38:31;101241.09;;;4.58;89.35
43125;BME280;49182;50.788;7.318;2022-12-19T12:41:17;101236.13;;;4.53;89.91
43125;BME280;49182;50.788;7.318;2022-12-19T12:43:51;101237.13;;;4.51;89.66
43125;BME280;49182;50.788;7.318;2022-12-19T12:46:25;101238.81;;;4.52;90.45
43125;BME280;49182;50.788;7.318;2022-12-19T12:48:56;101232.19;;;4.62;89.56
43125;BME280;49182;50.788;7.318;2022-12-19T12:51:25;101222.78;;;4.58;90.26
43125;BME280;49182;50.788;7.318;2022-12-19T12:53:59;101217.28;;;4.46;89.92
43125;BME280;49182;50.788;7.318;2022-12-19T12:56:27;101244.03;;;4.69;89.67
43125;BME280;49182;50.788;7.318;2022-12-19T12:59:15;101237.09;;;4.68;89.06
43125;BME280;49182;50.788;7.318;2022-12-19T13:01:48;101235.31;;;4.68;89.00
43125;BME280;49182;50.788;7.318;2022-12-19T13:04:19;101232.50;;;4.56;89.86
43125;BME280;49182;50.788;7.318;2022-12-19T13:07:10;101234.63;;;4.65;89.75
43125;BME280;49182;50.788;7.318;2022-12-19T13:09:40;101236.91;;;4.71;89.92
43125;BME280;49182;50.788;7.318;2022-12-19T13:12:17;101237.75;;;4.71;89.28
43125;BME280;49182;50.788;7.318;2022-12-19T13:14:47;101232.19;;;4.77;89.31
43125;BME280;49182;50.788;7.318;2022-12-19T13:17:19;101229.19;;;4.85;88.84
43125;BME280;49182;50.788;7.318;2022-12-19T13:19:54;101226.22;;;4.91;89.16
43125;BME280;49182;50.788;7.318;2022-12-19T13:22:36;101194.66;;;4.78;88.78
43125;BME280;49182;50.788;7.318;2022-12-19T13:31:16;101210.88;;;5.01;88.55
43125;BME280;49182;50.788;7.318;2022-12-19T13:34:13;101218.91;;;4.98;88.33
43125;BME280;49182;50.788;7.318;2022-12-19T13:36:49;101216.09;;;5.01;88.04
43125;BME280;49182;50.788;7.318;2022-12-19T13:39:40;101217.06;;;5.00;88.42
43125;BME280;49182;50.788;7.318;2022-12-19T13:42:32;101219.16;;;5.09;87.37